Time;durP1;ratioP1;P1;durP2;ratioP2;P2;SDS_P1;SDS_P2;PMS_P1;PMS_P2;Temp;Humidity;BMP_temperature;BMP_pressure;BME280_temperature;BME280_humidity;BME280_pressure;Samples;Min_cycle;Max_cycle;Signal;HPM_P1;HPM_P2
2021/11/19 00:00:45;;;;;;;32.23;20.20;;;1.40;99.90;;;;;;5044357;28;20033;-80
2021/11/19 00:03:11;;;;;;;30.30;19.60;;;1.30;99.90;;;;;;5047512;28;20170;-80
2021/11/19 00:05:38;;;;;;;28.20;19.13;;;1.30;99.90;;;;;;5040998;28;20017;-80
2021/11/19 00:08:04;;;;;;;30.40;19.43;;;1.30;99.90;;;;;;5052967;28;20087;-80
2021/11/19 00:10:30;;;;;;;30.40;19.97;;;1.30;99.90;;;;;;5053505;28;20024;-80
2021/11/19 00:12:56;;;;;;;29.30;19.77;;;1.40;99.90;;;;;;5052931;28;20125;-80
2021/11/19 00:15:22;;;;;;;26.93;18.47;;;1.40;99.90;;;;;;5052955;28;20025;-80
2021/11/19 00:17:48;;;;;;;27.83;19.27;;;1.30;99.90;;;;;;5032884;28;20017;-80
2021/11/19 00:20:17;;;;;;;29.77;19.63;;;1.30;99.90;;;;;;5045320;28;20055;-80
2021/11/19 00:22:43;;;;;;;29.23;19.93;;;1.30;99.90;;;;;;5052650;28;20108;-80
2021/11/19 00:25:10;;;;;;;31.43;21.13;;;1.30;99.90;;;;;;5052523;28;20421;-80
2021/11/19 00:27:37;;;;;;;31.53;20.07;;;1.30;99.90;;;;;;5052544;28;20032;-80
2021/11/19 00:30:09;;;;;;;29.37;18.97;;;1.30;99.90;;;;;;5042498;28;20030;-80
2021/11/19 00:32:36;;;;;;;31.23;20.07;;;1.20;99.90;;;;;;5046563;28;20029;-80
2021/11/19 00:35:04;;;;;;;28.87;19.17;;;1.30;99.90;;;;;;5040805;28;20025;-78
2021/11/19 00:37:31;;;;;;;32.57;19.07;;;1.20;99.90;;;;;;5053124;28;20040;-78
2021/11/19 00:39:56;;;;;;;30.33;19.20;;;1.20;99.90;;;;;;5052736;28;20068;-78
2021/11/19 00:42:22;;;;;;;31.00;20.63;;;1.20;99.90;;;;;;5052890;28;20025;-78
2021/11/19 00:44:50;;;;;;;32.37;18.43;;;1.20;99.90;;;;;;5053115;28;20028;-78
2021/11/19 00:47:16;;;;;;;33.67;19.07;;;1.10;99.90;;;;;;5052088;28;20021;-80
2021/11/19 00:49:43;;;;;;;31.17;19.93;;;1.10;99.90;;;;;;5052376;28;20047;-80
2021/11/19 00:52:11;;;;;;;31.60;20.67;;;1.10;99.90;;;;;;5052564;28;20051;-80
2021/11/19 00:54:37;;;;;;;32.50;20.50;;;1.10;99.90;;;;;;5052351;28;20108;-80
2021/11/19 00:57:06;;;;;;;28.50;18.73;;;1.00;99.90;;;;;;5055233;28;20514;-80
2021/11/19 00:59:34;;;;;;;28.47;19.57;;;1.00;99.90;;;;;;5055213;28;20033;-80
2021/11/19 01:02:05;;;;;;;32.07;19.90;;;1.00;99.90;;;;;;5056367;28;20107;-80
2021/11/19 01:04:31;;;;;;;32.80;20.30;;;1.00;99.90;;;;;;5056329;28;20106;-80
2021/11/19 01:06:57;;;;;;;31.13;20.73;;;1.00;99.90;;;;;;5056365;28;20315;-80
2021/11/19 01:09:26;;;;;;;31.53;20.67;;;1.00;99.90;;;;;;5056567;28;20035;-80
2021/11/19 01:11:54;;;;;;;29.80;20.20;;;1.00;99.90;;;;;;5059124;28;20044;-80
2021/11/19 01:14:24;;;;;;;30.33;19.20;;;1.00;99.90;;;;;;5056686;28;20090;-80
2021/11/19 01:16:53;;;;;;;31.53;20.40;;;1.00;99.90;;;;;;5056452;28;20345;-80
2021/11/19 01:19:28;;;;;;;34.57;21.57;;;1.00;99.90;;;;;;5068529;28;20037;-80
2021/11/19 01:21:58;;;;;;;28.52;18.88;;;0.90;99.90;;;;;;5056179;28;20033;-78
2021/11/19 01:24:25;;;;;;;31.27;20.37;;;0.90;99.90;;;;;;5040898;28;20024;-78
2021/11/19 01:26:51;;;;;;;30.33;19.40;;;0.90;99.90;;;;;;5056056;28;20032;-78
2021/11/19 01:29:19;;;;;;;29.47;19.70;;;0.90;99.90;;;;;;5053383;28;20020;-78
2021/11/19 01:31:57;;;;;;;31.40;19.90;;;0.90;99.90;;;;;;5044794;28;20064;-78
2021/11/19 01:34:22;;;;;;;29.30;19.20;;;0.90;99.90;;;;;;5055976;28;20070;-78
2021/11/19 01:36:48;;;;;;;32.07;20.10;;;0.90;99.90;;;;;;5055901;28;20025;-78
2021/11/19 01:39:16;;;;;;;31.17;20.30;;;0.90;99.90;;;;;;5055668;28;20067;-78
2021/11/19 01:41:50;;;;;;;27.17;18.27;;;0.90;99.90;;;;;;5055785;28;20013;-78
2021/11/19 01:44:26;;;;;;;31.63;20.27;;;0.80;99.90;;;;;;5056142;28;20346;-78
2021/11/19 01:46:54;;;;;;;32.63;21.03;;;0.80;99.90;;;;;;5061911;28;20362;-78
2021/11/19 01:49:22;;;;;;;33.47;19.00;;;0.80;99.90;;;;;;5062065;28;20489;-78
2021/11/19 01:52:12;;;;;;;32.07;20.37;;;0.90;99.90;;;;;;5055535;28;20053;-78
2021/11/19 01:54:46;;;;;;;34.70;21.10;;;0.90;99.90;;;;;;5055427;28;20036;-78
2021/11/19 01:57:24;;;;;;;31.53;19.37;;;0.90;99.90;;;;;;5054194;28;20021;-78
2021/11/19 01:59:57;;;;;;;29.07;18.97;;;0.90;99.90;;;;;;5055277;28;20025;-78
2021/11/19 02:02:31;;;;;;;31.97;19.23;;;0.90;99.90;;;;;;5045920;28;20169;-77
2021/11/19 02:05:24;;;;;;;31.48;20.20;;;0.90;99.90;;;;;;5036787;28;20021;-78
2021/11/19 02:07:57;;;;;;;29.50;19.80;;;0.90;99.90;;;;;;5054664;28;20051;-78
2021/11/19 02:10:40;;;;;;;30.00;18.57;;;0.90;99.90;;;;;;5055016;28;20029;-78
2021/11/19 02:13:42;;;;;;;37.03;20.27;;;0.90;99.90;;;;;;5054543;28;20053;-78
2021/11/19 02:16:18;;;;;;;32.50;19.23;;;0.80;99.90;;;;;;5041340;28;20025;-78
2021/11/19 02:19:02;;;;;;;31.27;20.13;;;0.80;99.90;;;;;;5054811;28;20386;-78
2021/11/19 02:21:34;;;;;;;30.60;18.73;;;0.80;99.90;;;;;;5043119;28;20560;-78
2021/11/19 02:24:04;;;;;;;29.40;19.53;;;0.80;99.90;;;;;;5053486;28;20021;-78
2021/11/19 02:26:41;;;;;;;25.43;17.77;;;0.80;99.90;;;;;;5053491;28;20083;-78
2021/11/19 02:29:07;;;;;;;25.30;16.83;;;0.90;99.90;;;;;;5054665;28;20025;-78
2021/11/19 02:31:53;;;;;;;27.00;17.17;;;0.90;99.90;;;;;;5054845;28;20035;-78
2021/11/19 02:34:20;;;;;;;28.17;18.77;;;0.90;99.90;;;;;;5054738;28;20043;-78
2021/11/19 02:36:56;;;;;;;26.87;17.90;;;0.80;99.90;;;;;;5053269;28;20033;-78
2021/11/19 02:39:28;;;;;;;27.03;17.33;;;0.80;99.90;;;;;;5055105;28;20067;-78
2021/11/19 02:42:01;;;;;;;26.87;18.20;;;0.80;99.90;;;;;;5062804;28;20021;-78
2021/11/19 02:44:34;;;;;;;26.53;18.43;;;0.80;99.90;;;;;;5043154;28;20091;-78
2021/11/19 02:47:03;;;;;;;26.93;17.50;;;0.70;99.90;;;;;;5042469;28;20025;-78
2021/11/19 02:49:30;;;;;;;29.03;18.57;;;0.70;99.90;;;;;;5054324;28;20029;-78
2021/11/19 02:51:56;;;;;;;28.67;18.37;;;0.70;99.90;;;;;;5054282;28;20025;-78
2021/11/19 02:54:24;;;;;;;28.30;18.50;;;0.70;99.90;;;;;;5054231;28;20113;-78
2021/11/19 02:56:51;;;;;;;26.27;17.50;;;0.60;99.90;;;;;;5034815;28;20033;-78
2021/11/19 02:59:19;;;;;;;26.20;16.83;;;0.60;99.90;;;;;;5044482;28;20032;-78
2021/11/19 03:01:56;;;;;;;27.03;17.67;;;0.60;99.90;;;;;;5054521;28;20413;-78
2021/11/19 03:04:32;;;;;;;27.10;18.53;;;0.50;99.90;;;;;;5043115;28;20026;-78
2021/11/19 03:06:59;;;;;;;27.00;16.93;;;0.50;99.90;;;;;;5038848;28;20033;-78
2021/11/19 03:09:32;;;;;;;26.73;18.47;;;0.50;99.90;;;;;;5065426;28;20082;-78
2021/11/19 03:11:58;;;;;;;27.93;18.17;;;0.50;99.90;;;;;;5051838;28;20488;-78
2021/11/19 03:14:25;;;;;;;30.50;18.57;;;0.50;99.90;;;;;;5040076;28;20107;-78
2021/11/19 03:16:52;;;;;;;28.83;17.13;;;0.50;99.90;;;;;;5053877;28;20488;-78
2021/11/19 03:19:21;;;;;;;27.33;17.50;;;0.50;99.90;;;;;;5053438;28;20020;-78
2021/11/19 03:21:48;;;;;;;25.27;16.87;;;0.40;99.90;;;;;;5053800;28;20078;-78
2021/11/19 03:24:16;;;;;;;30.27;18.33;;;0.40;99.90;;;;;;5042530;28;20025;-78
2021/11/19 03:26:42;;;;;;;30.07;18.07;;;0.40;99.90;;;;;;5043765;28;20021;-78
2021/11/19 03:29:09;;;;;;;28.53;17.93;;;0.40;99.90;;;;;;5050057;28;20029;-78
2021/11/19 03:31:35;;;;;;;28.13;18.90;;;0.40;99.90;;;;;;5067587;28;20041;-78
2021/11/19 03:34:01;;;;;;;29.57;18.83;;;0.40;99.90;;;;;;5053515;28;20374;-78
2021/11/19 03:36:28;;;;;;;34.20;18.07;;;0.40;99.90;;;;;;5053380;28;20120;-78
2021/11/19 03:38:56;;;;;;;39.27;18.47;;;0.40;99.90;;;;;;5053360;28;20112;-78
2021/11/19 03:41:26;;;;;;;46.60;19.97;;;0.40;99.90;;;;;;5045769;28;20022;-78
2021/11/19 03:44:08;;;;;;;53.87;20.03;;;0.40;99.90;;;;;;5047263;28;20087;-78
2021/11/19 03:46:43;;;;;;;29.53;18.40;;;0.40;99.90;;;;;;5041716;28;20021;-78
2021/11/19 03:49:09;;;;;;;28.02;17.33;;;0.40;99.90;;;;;;5054961;28;20477;-78
2021/11/19 03:51:48;;;;;;;31.40;17.87;;;0.40;99.90;;;;;;5072993;28;20116;-80
2021/11/19 03:54:16;;;;;;;32.73;19.80;;;0.30;99.90;;;;;;5070076;28;20487;-80
2021/11/19 03:56:42;;;;;;;34.53;18.70;;;0.30;99.90;;;;;;5047268;28;20051;-80
2021/11/19 03:59:09;;;;;;;33.07;18.63;;;0.30;99.90;;;;;;5045292;28;20052;-80
2021/11/19 04:01:39;;;;;;;33.30;18.03;;;0.30;99.90;;;;;;5038680;28;20104;-80
2021/11/19 04:04:06;;;;;;;29.20;18.07;;;0.30;99.90;;;;;;5052906;28;20040;-80
2021/11/19 04:06:32;;;;;;;30.03;18.57;;;0.30;99.90;;;;;;5037400;28;20021;-80
2021/11/19 04:08:58;;;;;;;31.50;18.17;;;0.20;99.90;;;;;;5052706;28;20032;-80
2021/11/19 04:11:25;;;;;;;32.67;19.30;;;0.20;99.90;;;;;;5052897;28;20381;-80
2021/11/19 04:13:52;;;;;;;34.13;17.43;;;0.20;99.90;;;;;;5052591;28;20656;-80
2021/11/19 04:16:34;;;;;;;27.07;17.93;;;0.30;99.90;;;;;;5038905;28;20474;-80
2021/11/19 04:19:01;;;;;;;30.17;18.63;;;0.30;99.90;;;;;;5053149;28;20435;-80
2021/11/19 04:21:28;;;;;;;29.73;17.57;;;0.30;99.90;;;;;;5052577;28;20434;-80
2021/11/19 04:23:55;;;;;;;26.63;18.17;;;0.30;99.90;;;;;;5051869;28;20033;-80
2021/11/19 04:26:22;;;;;;;28.40;17.60;;;0.30;99.90;;;;;;5052934;28;20029;-80
2021/11/19 04:28:47;;;;;;;28.97;18.03;;;0.40;99.90;;;;;;5052972;28;20029;-80
2021/11/19 04:31:15;;;;;;;28.93;16.47;;;0.40;99.90;;;;;;5040479;28;20095;-80
2021/11/19 04:33:41;;;;;;;27.70;17.27;;;0.40;99.90;;;;;;5036327;28;20494;-80
2021/11/19 04:36:08;;;;;;;22.87;16.10;;;0.40;99.90;;;;;;5051460;28;20032;-80
2021/11/19 04:38:34;;;;;;;26.47;16.93;;;0.40;99.90;;;;;;5052487;28;20454;-80
2021/11/19 04:41:01;;;;;;;24.93;15.50;;;0.40;99.90;;;;;;5045466;28;20030;-80
2021/11/19 04:43:27;;;;;;;23.97;14.80;;;0.40;99.90;;;;;;5045825;28;20356;-80
2021/11/19 04:45:54;;;;;;;24.67;15.87;;;0.40;99.90;;;;;;5052816;28;20135;-80
2021/11/19 04:48:20;;;;;;;25.50;16.30;;;0.40;99.90;;;;;;5052592;28;20437;-80
2021/11/19 04:50:49;;;;;;;24.73;16.10;;;0.40;99.90;;;;;;5052403;28;20033;-80
2021/11/19 04:53:20;;;;;;;26.67;15.73;;;0.40;99.90;;;;;;5050273;28;20128;-80
2021/11/19 04:55:46;;;;;;;26.77;17.23;;;0.40;99.90;;;;;;5048373;28;20039;-80
2021/11/19 04:58:13;;;;;;;23.47;15.00;;;0.40;99.90;;;;;;5041099;28;20035;-80
2021/11/19 05:00:42;;;;;;;24.00;15.90;;;0.40;99.90;;;;;;5052401;28;20043;-80
2021/11/19 05:03:09;;;;;;;24.90;15.70;;;0.40;99.90;;;;;;5052550;28;20048;-80
2021/11/19 05:05:35;;;;;;;27.80;17.63;;;0.40;99.90;;;;;;5052452;28;20427;-78
2021/11/19 05:08:05;;;;;;;23.17;15.40;;;0.30;99.90;;;;;;5032919;28;20037;-78
2021/11/19 05:10:32;;;;;;;29.03;17.13;;;0.30;99.90;;;;;;5044182;28;20033;-78
2021/11/19 05:12:59;;;;;;;25.70;15.97;;;0.30;99.90;;;;;;5042309;28;20052;-78
2021/11/19 05:15:27;;;;;;;25.70;15.10;;;0.30;99.90;;;;;;5061812;28;20029;-78
2021/11/19 05:17:53;;;;;;;22.57;16.27;;;0.30;99.90;;;;;;5051158;28;20033;-78
2021/11/19 05:20:21;;;;;;;32.03;17.03;;;0.30;99.90;;;;;;5052393;28;20438;-78
2021/11/19 05:22:48;;;;;;;25.23;16.63;;;0.30;99.90;;;;;;5053151;28;20079;-80
2021/11/19 05:25:18;;;;;;;26.83;15.47;;;0.30;99.90;;;;;;5065213;28;20159;-80
2021/11/19 05:27:44;;;;;;;26.27;16.47;;;0.30;99.90;;;;;;5050787;28;20033;-78
2021/11/19 05:30:11;;;;;;;24.70;15.30;;;0.30;99.90;;;;;;5051819;28;20451;-78
2021/11/19 05:32:37;;;;;;;26.33;15.73;;;0.40;99.90;;;;;;5043635;28;20044;-78
2021/11/19 05:35:05;;;;;;;25.90;15.60;;;0.40;99.90;;;;;;5045695;28;20122;-78
2021/11/19 05:37:30;;;;;;;22.30;14.23;;;0.30;99.90;;;;;;5038049;28;20115;-78
2021/11/19 05:39:56;;;;;;;21.57;15.10;;;0.40;99.90;;;;;;5051548;28;20492;-78
2021/11/19 05:42:21;;;;;;;24.30;15.70;;;0.40;99.90;;;;;;5045434;28;20128;-78
2021/11/19 05:44:47;;;;;;;24.53;15.33;;;0.30;99.90;;;;;;5055674;28;20112;-78
2021/11/19 05:47:13;;;;;;;25.70;15.93;;;0.40;99.90;;;;;;5056154;28;20025;-78
2021/11/19 05:49:39;;;;;;;25.23;14.97;;;0.40;99.90;;;;;;5056283;28;20041;-78
2021/11/19 05:52:07;;;;;;;22.93;15.00;;;0.40;99.90;;;;;;5054279;28;20055;-78
2021/11/19 05:54:35;;;;;;;24.73;14.43;;;0.40;99.90;;;;;;5055747;28;20045;-78
2021/11/19 05:57:03;;;;;;;22.33;15.17;;;0.40;99.90;;;;;;5052883;28;20025;-80
2021/11/19 05:59:29;;;;;;;25.47;16.07;;;0.40;99.90;;;;;;5047217;28;20107;-79
2021/11/19 06:01:56;;;;;;;23.47;15.20;;;0.40;99.90;;;;;;5043355;28;20022;-79
2021/11/19 06:04:21;;;;;;;26.60;15.80;;;0.40;99.90;;;;;;5038320;28;20017;-79
2021/11/19 06:06:47;;;;;;;26.27;16.10;;;0.40;99.90;;;;;;5046849;28;20067;-72
2021/11/19 06:09:19;;;;;;;27.90;16.30;;;0.50;99.90;;;;;;5048386;28;20470;-80
2021/11/19 06:11:51;;;;;;;21.67;14.63;;;0.50;99.90;;;;;;5042650;28;20361;-80
2021/11/19 06:14:42;;;;;;;23.90;15.30;;;0.50;99.90;;;;;;5041737;28;20120;-80
2021/11/19 06:17:13;;;;;;;23.40;16.17;;;0.50;99.90;;;;;;5051426;28;20021;-82
2021/11/19 06:19:41;;;;;;;26.87;16.27;;;0.50;99.90;;;;;;5054059;28;20040;-81
2021/11/19 06:22:12;;;;;;;28.57;16.23;;;0.50;99.90;;;;;;5055035;28;20492;-79
2021/11/19 06:24:43;;;;;;;23.27;15.17;;;0.50;99.90;;;;;;5054816;28;20067;-80
2021/11/19 06:27:12;;;;;;;23.47;14.87;;;0.50;99.90;;;;;;5054671;28;20028;-79
2021/11/19 06:29:39;;;;;;;23.20;15.53;;;0.50;99.90;;;;;;5055319;28;20082;-81
2021/11/19 06:32:05;;;;;;;24.23;15.37;;;0.50;99.90;;;;;;5054499;28;20021;-79
2021/11/19 06:34:31;;;;;;;24.37;16.03;;;0.50;99.90;;;;;;5054810;28;20036;-83
2021/11/19 06:39:44;;;;;;;33.37;16.60;;;0.50;99.90;;;;;;5024669;28;20037;-79
2021/11/19 06:42:20;;;;;;;29.43;16.70;;;0.50;99.90;;;;;;5051616;28;20079;-78
2021/11/19 06:44:47;;;;;;;25.50;16.27;;;0.60;99.90;;;;;;5050849;28;20029;-80
2021/11/19 06:47:15;;;;;;;29.23;17.23;;;0.60;99.90;;;;;;5053152;28;20036;-80
2021/11/19 06:49:41;;;;;;;27.50;15.27;;;0.60;99.90;;;;;;5055034;28;20522;-80
2021/11/19 06:52:08;;;;;;;24.40;15.20;;;0.70;99.90;;;;;;5054948;28;20017;-80
2021/11/19 06:54:35;;;;;;;25.67;16.37;;;0.70;99.90;;;;;;5053711;28;20018;-80
2021/11/19 06:57:02;;;;;;;29.70;17.87;;;0.70;99.90;;;;;;5041983;28;20017;-81
2021/11/19 06:59:31;;;;;;;29.80;18.80;;;0.70;99.90;;;;;;5034798;28;20389;-81
2021/11/19 07:01:59;;;;;;;23.63;16.40;;;0.80;99.90;;;;;;5037572;28;20025;-80
2021/11/19 07:04:30;;;;;;;28.80;16.67;;;0.80;99.90;;;;;;5038304;28;20512;-79
2021/11/19 07:07:01;;;;;;;33.90;16.90;;;0.90;99.90;;;;;;5047527;28;20100;-80
2021/11/19 07:09:32;;;;;;;28.10;17.43;;;0.90;99.90;;;;;;5054020;28;20029;-80
2021/11/19 07:12:02;;;;;;;25.53;17.57;;;1.00;99.90;;;;;;5050216;28;20029;-79
2021/11/19 07:14:30;;;;;;;29.20;16.73;;;1.00;99.90;;;;;;5036502;28;20363;-77
2021/11/19 07:16:55;;;;;;;29.33;17.47;;;1.00;99.90;;;;;;5053917;28;20163;-79
2021/11/19 07:19:23;;;;;;;29.00;16.87;;;1.10;99.90;;;;;;5051788;28;20056;-79
2021/11/19 07:21:53;;;;;;;34.77;17.63;;;1.10;99.90;;;;;;5059915;28;20020;-79
2021/11/19 07:24:19;;;;;;;28.53;16.80;;;1.10;99.90;;;;;;5056350;28;20465;-79
2021/11/19 07:26:44;;;;;;;25.97;16.33;;;1.20;99.90;;;;;;5050207;28;20021;-77
2021/11/19 07:29:11;;;;;;;30.77;17.20;;;1.20;99.90;;;;;;5054180;28;20025;-77
2021/11/19 07:31:37;;;;;;;26.30;15.40;;;1.30;99.90;;;;;;5052937;28;20102;-79
2021/11/19 07:34:04;;;;;;;21.80;14.20;;;1.40;99.90;;;;;;5051066;28;20485;-79
2021/11/19 07:36:30;;;;;;;23.70;14.07;;;1.50;99.90;;;;;;5051808;28;20029;-79
2021/11/19 07:38:56;;;;;;;22.60;14.70;;;1.50;99.90;;;;;;5050763;28;20040;-80
2021/11/19 07:41:23;;;;;;;22.80;13.83;;;1.60;99.90;;;;;;5049670;28;20045;-80
2021/11/19 07:43:49;;;;;;;23.73;15.43;;;1.70;99.90;;;;;;5050791;28;20019;-80
2021/11/19 07:46:19;;;;;;;25.57;15.70;;;1.80;99.90;;;;;;5043893;28;20029;-79
2021/11/19 07:48:45;;;;;;;26.07;16.30;;;1.80;99.90;;;;;;5046923;28;20029;-77
2021/11/19 07:51:17;;;;;;;34.53;18.00;;;1.90;99.90;;;;;;5049813;28;20029;-79
2021/11/19 07:53:45;;;;;;;27.07;17.13;;;2.00;99.90;;;;;;5034516;28;20490;-80
2021/11/19 07:56:13;;;;;;;24.20;16.13;;;2.00;99.90;;;;;;5037571;28;20068;-80
2021/11/19 07:58:39;;;;;;;31.40;17.60;;;2.10;99.90;;;;;;5035245;28;20025;-80
2021/11/19 08:01:06;;;;;;;30.37;18.00;;;2.20;99.90;;;;;;5032784;28;20377;-79
2021/11/19 08:03:33;;;;;;;26.67;17.20;;;2.30;99.90;;;;;;5040724;28;20405;-80
2021/11/19 08:06:01;;;;;;;25.53;16.57;;;2.30;99.90;;;;;;5057755;28;20485;-77
2021/11/19 08:08:31;;;;;;;26.37;17.10;;;2.40;99.90;;;;;;5042908;28;20075;-80
2021/11/19 08:11:03;;;;;;;24.00;17.10;;;2.40;99.90;;;;;;5047793;28;20055;-80
2021/11/19 08:13:30;;;;;;;27.70;16.30;;;2.50;99.90;;;;;;5044039;28;20056;-77
2021/11/19 08:15:56;;;;;;;27.63;15.97;;;2.50;99.90;;;;;;5042921;28;20033;-77
2021/11/19 08:18:30;;;;;;;21.83;14.27;;;2.60;99.90;;;;;;5044567;28;20032;-77
2021/11/19 08:20:57;;;;;;;19.70;13.30;;;2.70;99.90;;;;;;5048666;28;20096;-77
2021/11/19 08:23:38;;;;;;;26.37;14.40;;;2.80;99.90;;;;;;5046660;28;20090;-77
2021/11/19 08:26:21;;;;;;;20.67;13.67;;;2.90;99.90;;;;;;5052224;28;20466;-77
2021/11/19 08:28:48;;;;;;;19.33;12.67;;;3.00;99.90;;;;;;5043065;28;20032;-79
2021/11/19 08:31:17;;;;;;;18.47;12.77;;;3.00;99.90;;;;;;5036505;28;20040;-79
2021/11/19 08:33:43;;;;;;;18.70;12.57;;;3.10;99.90;;;;;;5036519;28;20041;-79
2021/11/19 08:36:11;;;;;;;17.37;12.30;;;3.10;99.90;;;;;;5036302;28;21137;-79
2021/11/19 08:38:37;;;;;;;19.03;12.50;;;3.10;99.90;;;;;;5035987;28;20055;-79
2021/11/19 08:41:03;;;;;;;20.43;14.00;;;3.10;99.90;;;;;;5036223;28;20369;-79
2021/11/19 08:43:36;;;;;;;24.13;13.63;;;3.20;99.90;;;;;;5035575;28;20020;-79
2021/11/19 08:46:05;;;;;;;32.03;14.57;;;3.30;99.90;;;;;;5036264;28;20433;-80
2021/11/19 08:48:33;;;;;;;24.97;15.43;;;3.40;99.90;;;;;;5046689;28;20021;-80
2021/11/19 08:51:02;;;;;;;21.43;14.33;;;3.50;99.90;;;;;;5048328;28;20466;-80
2021/11/19 08:53:28;;;;;;;29.93;15.77;;;3.60;99.90;;;;;;5044925;28;20160;-80
2021/11/19 08:55:57;;;;;;;20.83;14.73;;;3.70;99.90;;;;;;5035683;28;20504;-80
2021/11/19 08:58:29;;;;;;;22.27;15.20;;;3.70;99.90;;;;;;5047145;28;20087;-80
2021/11/19 09:00:56;;;;;;;23.50;13.67;;;3.90;99.90;;;;;;5041243;28;20143;-80
2021/11/19 09:03:23;;;;;;;24.03;13.77;;;4.00;99.90;;;;;;5038635;28;20366;-77
2021/11/19 09:05:50;;;;;;;16.53;11.03;;;4.10;99.90;;;;;;5044466;28;20033;-77
2021/11/19 09:08:18;;;;;;;15.73;11.00;;;4.20;99.90;;;;;;5041848;28;20025;-77
2021/11/19 09:10:45;;;;;;;17.17;11.67;;;4.30;99.90;;;;;;5047176;28;20033;-77
2021/11/19 09:13:11;;;;;;;16.03;10.47;;;4.40;99.90;;;;;;5012234;28;1100652;-77
2021/11/19 09:15:38;;;;;;;14.50;10.03;;;4.50;99.90;;;;;;5045276;28;20032;-77
2021/11/19 09:18:09;;;;;;;20.10;8.30;;;4.60;99.90;;;;;;5036352;28;20033;-80
2021/11/19 09:20:51;;;;;;;14.50;9.10;;;4.80;99.90;;;;;;5045578;28;20044;-80
2021/11/19 09:23:22;;;;;;;12.23;8.37;;;4.80;99.90;;;;;;5050372;28;20021;-77
2021/11/19 09:25:51;;;;;;;10.73;8.10;;;5.00;99.90;;;;;;5051317;28;20024;-77
2021/11/19 09:28:19;;;;;;;11.33;8.30;;;5.10;99.90;;;;;;5048044;28;20069;-78
2021/11/19 09:30:48;;;;;;;12.33;8.27;;;5.30;99.90;;;;;;5047237;28;20017;-77
2021/11/19 09:33:21;;;;;;;11.27;7.40;;;5.40;99.90;;;;;;5037611;28;20470;-77
2021/11/19 09:35:49;;;;;;;11.40;7.90;;;5.60;99.90;;;;;;5041974;28;20032;-78
2021/11/19 09:38:16;;;;;;;13.93;7.63;;;5.70;99.90;;;;;;5054500;28;20055;-78
2021/11/19 09:40:53;;;;;;;10.73;7.23;;;5.80;99.90;;;;;;5056145;28;20032;-78
2021/11/19 09:43:25;;;;;;;9.70;7.03;;;5.90;99.90;;;;;;5051574;28;20029;-78
2021/11/19 09:46:12;;;;;;;9.43;7.50;;;6.00;99.90;;;;;;5043300;28;20478;-78
2021/11/19 09:48:55;;;;;;;13.33;7.97;;;6.10;99.90;;;;;;5049820;28;20029;-78
2021/11/19 09:51:41;;;;;;;9.13;6.83;;;6.20;99.90;;;;;;5036370;28;20025;-78
2021/11/19 09:54:43;;;;;;;13.37;8.10;;;6.50;99.90;;;;;;5035741;28;20033;-75
2021/11/19 09:57:57;;;;;;;11.03;8.23;;;6.60;99.90;;;;;;5045556;28;20029;-75
2021/11/19 10:00:47;;;;;;;10.97;7.63;;;6.70;99.90;;;;;;5045479;28;20491;-75
2021/11/19 10:03:29;;;;;;;12.00;9.00;;;6.80;99.90;;;;;;5040213;28;20021;-78
2021/11/19 10:06:02;;;;;;;15.07;9.50;;;6.90;99.90;;;;;;5055332;28;20075;-78
2021/11/19 10:08:55;;;;;;;16.50;11.20;;;6.80;99.90;;;;;;5056046;28;20359;-78
2021/11/19 10:11:26;;;;;;;16.60;12.93;;;7.00;99.90;;;;;;5051162;28;20373;-79
2021/11/19 10:14:10;;;;;;;20.77;14.23;;;6.90;99.90;;;;;;5055347;28;20052;-79
2021/11/19 10:16:47;;;;;;;19.90;13.73;;;6.90;99.90;;;;;;5053056;28;20037;-79
2021/11/19 10:19:32;;;;;;;18.20;13.20;;;6.90;99.90;;;;;;5055518;28;20036;-79
2021/11/19 10:22:04;;;;;;;;;;;6.90;99.90;;;;;;5055750;28;20025;-79
2021/11/19 10:24:50;;;;;;;22.93;13.20;;;6.80;99.90;;;;;;5055128;28;20277;-79
2021/11/19 10:27:21;;;;;;;20.93;14.33;;;6.80;99.90;;;;;;5055279;28;20021;-79
2021/11/19 10:29:52;;;;;;;20.60;13.80;;;6.80;99.90;;;;;;5038635;28;20033;-79
2021/11/19 10:32:21;;;;;;;22.43;15.83;;;6.80;99.90;;;;;;5035028;28;20029;-79
2021/11/19 10:34:52;;;;;;;22.03;15.60;;;6.80;99.90;;;;;;5035210;28;20116;-79
2021/11/19 10:37:59;;;;;;;20.27;14.90;;;6.80;99.90;;;;;;5038185;28;20388;-82
2021/11/19 10:40:42;;;;;;;;;;;6.90;99.90;;;;;;5044741;28;20028;-84
2021/11/19 10:43:47;;;;;;;20.23;15.20;;;6.90;99.90;;;;;;5053554;28;20353;-81
2021/11/19 10:46:44;;;;;;;21.27;15.33;;;7.00;99.90;;;;;;5048481;28;20041;-81
2021/11/19 10:49:33;;;;;;;21.93;15.70;;;7.00;99.90;;;;;;5037226;28;20025;-84
2021/11/19 10:52:15;;;;;;;22.30;15.93;;;7.10;99.90;;;;;;5037684;28;20098;-82
2021/11/19 10:54:57;;;;;;;19.43;15.53;;;7.20;99.90;;;;;;5036961;28;20112;-77
2021/11/19 10:57:25;;;;;;;21.57;15.13;;;7.20;99.90;;;;;;5036046;28;20048;-77
2021/11/19 11:00:22;;;;;;;22.00;15.90;;;7.20;99.90;;;;;;5048369;28;20432;-77
2021/11/19 11:02:55;;;;;;;21.77;14.53;;;7.30;99.90;;;;;;5048238;28;20480;-77
2021/11/19 11:05:26;;;;;;;21.20;15.03;;;7.30;99.90;;;;;;5047218;28;20368;-80
2021/11/19 11:08:43;;;;;;;21.33;15.03;;;7.30;99.90;;;;;;5051876;28;20326;-79
2021/11/19 11:11:20;;;;;;;18.98;14.48;;;7.40;99.90;;;;;;5031029;28;20044;-80
2021/11/19 11:13:55;;;;;;;19.27;13.53;;;7.50;99.90;;;;;;5052283;28;20048;-80
2021/11/19 11:16:23;;;;;;;22.23;13.95;;;7.70;99.90;;;;;;5053910;28;20032;-82
2021/11/19 11:18:54;;;;;;;20.97;14.27;;;7.70;99.90;;;;;;5054075;28;20481;-80
2021/11/19 11:21:26;;;;;;;19.37;14.97;;;7.80;99.90;;;;;;5043655;28;20059;-80
2021/11/19 11:24:11;;;;;;;19.53;13.63;;;7.90;99.90;;;;;;5043630;28;20474;-80
2021/11/19 11:26:42;;;;;;;20.80;13.90;;;8.00;99.90;;;;;;5053334;28;20029;-85
2021/11/19 11:29:08;;;;;;;16.83;12.70;;;8.20;99.90;;;;;;5051768;28;20433;-81
2021/11/19 11:32:10;;;;;;;16.63;13.17;;;8.20;99.90;;;;;;5054725;28;20035;-81
2021/11/19 11:35:02;;;;;;;18.70;13.07;;;8.20;99.90;;;;;;5043356;28;20452;-81
2021/11/19 11:37:49;;;;;;;17.37;12.43;;;8.20;99.90;;;;;;5069113;28;20024;-77
2021/11/19 11:40:24;;;;;;;17.17;12.20;;;8.30;99.90;;;;;;5053216;28;20468;-80
2021/11/19 11:43:12;;;;;;;17.38;12.10;;;8.30;99.90;;;;;;5041455;28;20047;-80
2021/11/19 11:45:52;;;;;;;15.87;11.57;;;8.30;99.90;;;;;;5057097;28;20020;-78
2021/11/19 11:48:31;;;;;;;18.20;11.93;;;8.30;99.90;;;;;;5054346;28;20029;-80
2021/11/19 11:51:24;;;;;;;20.97;11.90;;;8.30;99.90;;;;;;5041461;28;20024;-80
2021/11/19 11:54:25;;;;;;;14.10;10.40;;;8.40;99.90;;;;;;5032802;28;20125;-84
2021/11/19 11:57:26;;;;;;;15.33;10.63;;;8.40;99.90;;;;;;5038853;28;20406;-80
2021/11/19 12:00:22;;;;;;;16.83;10.70;;;8.40;99.90;;;;;;5038076;28;20064;-85
2021/11/19 12:02:56;;;;;;;;;;;8.40;99.90;;;;;;5040316;28;20414;-80
2021/11/19 12:05:37;;;;;;;13.33;9.73;;;8.30;99.90;;;;;;5039281;28;19917;-81
2021/11/19 12:08:14;;;;;;;12.87;9.30;;;8.40;99.90;;;;;;5036112;28;20033;-80
2021/11/19 12:11:17;;;;;;;14.93;10.17;;;8.30;99.90;;;;;;5033696;28;20025;-80
2021/11/19 12:13:53;;;;;;;11.47;8.43;;;8.20;99.90;;;;;;5036612;28;20041;-81
2021/11/19 12:16:54;;;;;;;11.73;8.00;;;8.20;99.90;;;;;;5039831;28;20105;-81
2021/11/19 12:19:45;;;;;;;13.03;8.30;;;8.40;99.90;;;;;;5035398;28;20057;-81
2021/11/19 12:22:40;;;;;;;11.40;8.03;;;8.50;99.90;;;;;;5035298;28;20413;-81
2021/11/19 12:25:35;;;;;;;11.20;8.10;;;8.70;99.90;;;;;;5036502;28;20025;-81
2021/11/19 12:28:23;;;;;;;10.32;6.90;;;8.70;99.90;;;;;;5024065;28;20554;-81
2021/11/19 12:30:56;;;;;;;10.57;6.80;;;8.90;99.90;;;;;;5039239;28;20049;-80
2021/11/19 12:33:29;;;;;;;11.80;7.33;;;9.00;99.90;;;;;;5039682;28;20381;-80
2021/11/19 12:35:55;;;;;;;9.90;6.73;;;9.20;99.90;;;;;;5038266;28;20048;-74
2021/11/19 12:38:25;;;;;;;9.93;6.50;;;9.20;99.90;;;;;;5048209;28;20037;-74
2021/11/19 12:40:50;;;;;;;10.53;6.50;;;9.30;99.90;;;;;;5042401;28;20415;-79
2021/11/19 12:43:28;;;;;;;11.33;7.23;;;9.30;99.90;;;;;;5049706;28;20025;-79
2021/11/19 12:46:22;;;;;;;10.27;7.07;;;9.30;99.90;;;;;;5048293;28;20029;-79
2021/11/19 12:49:16;;;;;;;11.93;7.23;;;9.20;99.90;;;;;;5046165;28;20067;-79
2021/11/19 12:52:00;;;;;;;9.47;6.47;;;9.20;99.90;;;;;;5039850;28;20116;-78
2021/11/19 12:55:05;;;;;;;9.60;6.70;;;9.20;99.90;;;;;;5048844;28;20061;-79
2021/11/19 12:57:49;;;;;;;8.73;6.47;;;9.30;99.90;;;;;;5044806;28;20029;-87
2021/11/19 13:00:27;;;;;;;9.47;6.10;;;9.40;99.90;;;;;;5048530;28;20036;-87
2021/11/19 13:03:46;;;;;;;8.60;6.57;;;9.40;99.90;;;;;;5045612;28;20037;-82
2021/11/19 13:06:21;;;;;;;10.47;6.87;;;9.40;99.90;;;;;;4999242;28;20030;-82
2021/11/19 13:08:55;;;;;;;14.63;7.15;;;9.40;99.90;;;;;;5043506;28;20474;-88
2021/11/19 13:11:30;;;;;;;10.57;6.57;;;9.50;99.90;;;;;;5054695;28;20424;-87